createdAt,value
2019-02-22T00:00:02.395Z,8.5
2019-02-22T00:05:03.050Z,8.5
2019-02-22T00:10:02.568Z,8.6
2019-02-22T00:15:02.983Z,8.6
2019-02-22T00:20:02.356Z,8.5
2019-02-22T00:25:02.755Z,8.6
2019-02-22T00:30:03.271Z,8.6
2019-02-22T00:35:02.871Z,8.5
2019-02-22T00:40:03.373Z,8.5
2019-02-22T00:45:02.715Z,8.6
2019-02-22T00:50:03.141Z,8.6
2019-02-22T00:55:02.571Z,8.6
2019-02-22T01:00:02.085Z,8.5
2019-02-22T01:05:02.814Z,8.6
2019-02-22T01:10:03.245Z,8.5
2019-02-22T01:15:02.682Z,8.5
2019-02-22T01:20:03.109Z,8.5
2019-02-22T01:25:02.441Z,8.5
2019-02-22T01:30:02.876Z,8.5
2019-02-22T01:35:03.231Z,8.6
2019-02-22T01:40:02.728Z,8.6
2019-02-22T01:45:03.077Z,8.5
2019-02-22T01:50:02.484Z,8.5
2019-02-22T01:55:02.874Z,8.6
2019-02-22T02:00:03.314Z,8.6
2019-02-22T02:05:02.731Z,8.6
2019-02-22T02:10:03.177Z,8.6
2019-02-22T02:15:02.557Z,8.8
2019-02-22T02:20:02.959Z,8.6
2019-02-22T02:25:02.432Z,8.5
2019-02-22T02:30:02.800Z,8.6
2019-02-22T02:35:03.242Z,8.5
2019-02-22T02:40:02.764Z,8.5
2019-02-22T02:45:03.211Z,8.5
2019-02-22T02:50:02.621Z,8.5
2019-02-22T02:55:03.080Z,8.5
2019-02-22T03:00:02.447Z,8.5
2019-02-22T03:05:02.833Z,8.5
2019-02-22T03:10:03.351Z,8.5
2019-02-22T03:15:02.781Z,8.5
2019-02-22T03:20:03.199Z,8.5
2019-02-22T03:25:02.626Z,8.5
2019-02-22T03:30:03.101Z,8.5
2019-02-22T03:35:02.490Z,8.5
2019-02-22T03:40:02.940Z,8.5
2019-02-22T03:45:03.286Z,8.5
2019-02-22T03:50:02.685Z,8.8
2019-02-22T03:55:03.039Z,8.8
2019-02-22T04:00:02.438Z,8.6
2019-02-22T04:05:02.791Z,8.8
2019-02-22T04:10:03.234Z,8.8
2019-02-22T04:15:02.638Z,9.0
2019-02-22T04:20:02.985Z,8.8
2019-02-22T04:25:02.324Z,8.6
2019-02-22T04:30:02.753Z,9.0
2019-02-22T04:35:03.089Z,8.8
2019-02-22T04:40:02.498Z,9.0
2019-02-22T04:45:02.845Z,9.0
2019-02-22T04:50:03.205Z,8.8
2019-02-22T04:55:02.545Z,8.6
2019-02-22T05:00:02.878Z,8.6
2019-02-22T05:05:03.302Z,8.5
2019-02-22T05:10:02.712Z,8.5
2019-02-22T05:15:11.860Z,8.5
2019-02-22T05:20:02.315Z,8.5
2019-02-22T05:25:02.711Z,8.6
2019-02-22T05:30:03.002Z,8.6
2019-02-22T05:35:02.574Z,8.8
2019-02-22T05:40:03.022Z,8.8
2019-02-22T05:45:02.437Z,8.8
2019-02-22T05:50:02.889Z,8.6
2019-02-22T05:55:03.322Z,8.6
2019-02-22T06:00:02.751Z,8.6
2019-02-22T06:05:03.195Z,8.6
2019-02-22T06:10:02.669Z,8.6
2019-02-22T06:15:02.201Z,8.6
2019-02-22T06:20:02.560Z,8.6
2019-02-22T06:25:02.939Z,8.6
2019-02-22T06:30:02.331Z,8.6
2019-02-22T06:35:02.769Z,8.6
2019-02-22T06:40:03.214Z,8.6
2019-02-22T06:45:02.635Z,8.6
2019-02-22T06:50:02.976Z,8.6
2019-02-22T06:55:02.397Z,8.6
2019-02-22T07:00:03.144Z,8.6
2019-02-22T07:05:02.566Z,8.6
2019-02-22T07:10:03.010Z,8.6
2019-02-22T07:15:02.423Z,8.6
2019-02-22T07:20:02.771Z,8.5
2019-02-22T07:25:03.102Z,8.5
2019-02-22T07:30:02.547Z,8.5
2019-02-22T07:35:02.973Z,8.5
2019-02-22T07:40:02.395Z,8.5
2019-02-22T07:45:02.833Z,8.5
2019-02-22T07:50:03.280Z,8.6
2019-02-22T07:55:02.696Z,8.5
2019-02-22T08:00:03.862Z,8.8
2019-02-22T08:05:03.281Z,8.6
2019-02-22T08:10:02.798Z,8.8
2019-02-22T08:15:03.138Z,9.1
2019-02-22T08:20:02.765Z,9.3
2019-02-22T08:25:03.099Z,9.5
2019-02-22T08:30:02.523Z,9.3
2019-02-22T08:35:02.969Z,9.3
2019-02-22T08:40:02.678Z,9.6
2019-02-22T08:45:02.390Z,9.6
2019-02-22T08:50:02.766Z,9.8
2019-02-22T08:55:03.201Z,9.8
2019-02-22T09:00:02.614Z,9.8
2019-02-22T09:05:02.962Z,9.8
2019-02-22T09:10:02.417Z,9.8
2019-02-22T09:15:02.829Z,10.1
2019-02-22T09:20:03.399Z,10.1
2019-02-22T09:25:02.816Z,10.1
2019-02-22T09:30:03.261Z,9.8
2019-02-22T09:35:02.683Z,9.8
2019-02-22T09:40:03.235Z,10.3
2019-02-22T09:45:02.608Z,10.6
2019-02-22T09:50:03.053Z,10.1
2019-02-22T09:55:02.484Z,10.6
2019-02-22T10:00:02.920Z,10.1
2019-02-22T10:05:03.269Z,11.0
2019-02-22T10:10:02.678Z,10.5
2019-02-22T10:15:03.036Z,10.6
2019-02-22T10:20:02.437Z,10.1
2019-02-22T10:25:02.887Z,10.3
2019-02-22T10:30:03.330Z,10.6
2019-02-22T10:35:02.751Z,10.6
2019-02-22T10:40:03.197Z,10.1
2019-02-22T10:45:02.634Z,10.3
2019-02-22T10:50:03.052Z,10.1
2019-02-22T10:55:02.399Z,10.1
2019-02-22T11:00:02.815Z,10.3
2019-02-22T11:05:03.257Z,10.8
2019-02-22T11:10:02.673Z,10.5
2019-02-22T11:15:03.029Z,10.3
2019-02-22T11:20:02.479Z,11.0
2019-02-22T11:25:02.288Z,10.6
2019-02-22T11:30:02.738Z,10.8
2019-02-22T11:35:03.093Z,11.3
2019-02-22T11:40:02.562Z,11.0
2019-02-22T11:45:03.041Z,10.8
2019-02-22T11:50:02.430Z,12.1
2019-02-22T11:55:02.821Z,12.0
2019-02-22T12:00:03.246Z,12.0
2019-02-22T12:05:02.671Z,11.8
2019-02-22T12:10:03.211Z,12.1
2019-02-22T12:15:02.619Z,13.1
2019-02-22T12:20:03.071Z,13.3
2019-02-22T12:25:02.491Z,13.3
2019-02-22T12:30:02.929Z,12.8
2019-02-22T12:35:03.387Z,13.1
2019-02-22T12:40:02.918Z,12.8
2019-02-22T12:45:03.668Z,13.5
2019-02-22T12:50:03.133Z,13.5
2019-02-22T12:55:02.492Z,13.6
2019-02-22T13:00:02.926Z,12.8
2019-02-22T13:05:03.345Z,13.6
2019-02-22T13:10:02.802Z,12.8
2019-02-22T13:15:13.348Z,13.6
2019-02-22T13:20:02.750Z,14.8
2019-02-22T13:25:03.170Z,12.8
2019-02-22T13:30:02.678Z,13.8
2019-02-22T13:35:03.130Z,13.5
2019-02-22T13:40:02.582Z,14.1
2019-02-22T13:45:02.995Z,13.6
2019-02-22T13:50:02.324Z,13.1
2019-02-22T13:55:02.801Z,15.3
2019-02-22T14:00:03.190Z,16.0
2019-02-22T14:05:02.603Z,15.1
2019-02-22T14:10:02.986Z,14.0
2019-02-22T14:15:02.417Z,14.5
2019-02-22T14:20:02.814Z,13.6
2019-02-22T14:25:03.160Z,13.5
2019-02-22T14:30:06.703Z,13.1
2019-02-22T14:35:03.131Z,13.3
2019-02-22T14:40:03.810Z,13.3
2019-02-22T14:45:02.495Z,13.6
2019-02-22T14:50:02.912Z,13.6
2019-02-22T14:55:03.263Z,12.8
2019-02-22T15:00:02.599Z,12.6
2019-02-22T15:05:03.053Z,12.5
2019-02-22T15:10:02.535Z,12.3
2019-02-22T15:15:02.183Z,13.3
2019-02-22T15:20:02.598Z,13.1
2019-02-22T15:25:02.937Z,12.6
2019-02-22T15:30:03.391Z,12.8
2019-02-22T15:35:02.833Z,12.6
2019-02-22T15:40:03.320Z,13.3
2019-02-22T15:45:02.759Z,14.8
2019-02-22T15:50:03.203Z,16.2
2019-02-22T15:55:02.627Z,15.6
2019-02-22T16:00:03.074Z,15.8
2019-02-22T16:05:02.483Z,12.8
2019-02-22T16:10:02.875Z,13.1
2019-02-22T16:15:03.217Z,12.5
2019-02-22T16:20:02.593Z,12.1
2019-02-22T16:25:02.936Z,12.0
2019-02-22T16:30:03.278Z,11.8
2019-02-22T16:35:02.696Z,11.6
2019-02-22T16:40:03.138Z,11.3
2019-02-22T16:45:05.060Z,11.3
2019-02-22T16:50:02.590Z,11.0
2019-02-22T16:55:03.041Z,10.8
2019-02-22T17:00:02.490Z,10.8
2019-02-22T17:05:02.828Z,10.6
2019-02-22T17:10:03.243Z,10.6
2019-02-22T17:15:02.679Z,10.3
2019-02-22T17:20:03.110Z,10.1
2019-02-22T17:25:02.534Z,10.1
2019-02-22T17:30:02.971Z,10.1
2019-02-22T17:35:02.421Z,10.0
2019-02-22T17:40:02.961Z,9.8
2019-02-22T17:45:03.401Z,9.6
2019-02-22T17:50:02.789Z,9.6
2019-02-22T17:55:03.237Z,9.5
2019-02-22T18:00:01.764Z,9.3
2019-02-22T18:05:03.100Z,9.5
2019-02-22T18:10:01.685Z,9.5
2019-02-22T18:15:03.065Z,9.5
2019-02-22T18:20:02.473Z,9.3
2019-02-22T18:25:02.825Z,9.3
2019-02-22T18:30:03.203Z,9.0
2019-02-22T18:35:02.581Z,9.0
2019-02-22T18:40:03.021Z,9.0
2019-02-22T18:45:02.448Z,8.8
2019-02-22T18:50:02.888Z,8.8
2019-02-22T18:55:03.257Z,8.8
2019-02-22T19:00:02.570Z,8.6
2019-02-22T19:05:02.903Z,8.6
2019-02-22T19:10:03.372Z,8.8
2019-02-22T19:15:02.738Z,8.8
2019-02-22T19:20:03.091Z,8.8
2019-02-22T19:25:02.507Z,8.8
2019-02-22T19:30:02.850Z,9.0
2019-02-22T19:35:03.227Z,8.8
2019-02-22T19:40:02.706Z,8.8
2019-02-22T19:45:03.063Z,8.6
2019-02-22T19:50:02.402Z,8.5
2019-02-22T19:55:02.822Z,8.5
2019-02-22T20:00:03.311Z,8.1
2019-02-22T20:05:02.722Z,8.1
2019-02-22T20:10:03.157Z,8.0
2019-02-22T20:15:02.544Z,8.1
2019-02-22T20:20:03.002Z,8.1
2019-02-22T20:25:02.436Z,8.0
2019-02-22T20:30:02.856Z,8.0
2019-02-22T20:35:03.289Z,8.3
2019-02-22T20:40:02.705Z,8.0
2019-02-22T20:45:03.163Z,8.1
2019-02-22T20:50:02.519Z,8.1
2019-02-22T20:55:02.921Z,8.0
2019-02-22T21:00:03.331Z,8.0
2019-02-22T21:05:02.762Z,7.9
2019-02-22T21:10:03.157Z,7.9
2019-02-22T21:15:02.531Z,7.6
2019-02-22T21:20:02.978Z,7.6
2019-02-22T21:25:02.406Z,7.5
2019-02-22T21:30:02.839Z,7.9
2019-02-22T21:35:03.289Z,7.5
2019-02-22T21:40:02.692Z,7.5
2019-02-22T21:45:03.039Z,7.4
2019-02-22T21:50:02.457Z,7.4
2019-02-22T21:55:02.793Z,7.4
2019-02-22T22:00:03.142Z,7.1
2019-02-22T22:05:02.550Z,7.1
2019-02-22T22:10:02.997Z,7.1
2019-02-22T22:15:02.429Z,7.1
2019-02-22T22:20:02.862Z,7.1
2019-02-22T22:25:03.203Z,7.0
2019-02-22T22:30:02.623Z,7.0
2019-02-22T22:35:03.068Z,6.9
2019-02-22T22:40:02.477Z,6.6
2019-02-22T22:45:02.830Z,6.5
2019-02-22T22:50:03.273Z,6.5
2019-02-22T22:55:02.701Z,6.5
2019-02-22T23:00:03.040Z,6.5
2019-02-22T23:05:02.447Z,6.5
2019-02-22T23:10:02.890Z,6.4
2019-02-22T23:15:03.236Z,6.1
2019-02-22T23:20:02.653Z,6.4
2019-02-22T23:25:02.990Z,6.1
2019-02-22T23:30:02.412Z,6.1
2019-02-22T23:35:02.758Z,6.0
2019-02-22T23:40:03.213Z,6.0
2019-02-22T23:45:02.543Z,6.0
2019-02-22T23:50:02.988Z,5.9
2019-02-22T23:55:02.410Z,5.8
